Time;durP1;ratioP1;P1;durP2;ratioP2;P2;SDS_P1;SDS_P2;PMS_P1;PMS_P2;Temp;Humidity;BMP_temperature;BMP_pressure;BME280_temperature;BME280_humidity;BME280_pressure;Samples;Min_cycle;Max_cycle;Signal;HPM_P1;HPM_P2
2021/12/01 00:03:19;;;;;;;0.83;0.30;;;;;;;20.00;48.90;95876.78;8159582;28;20188;-65
2021/12/01 00:07:18;;;;;;;3.20;0.20;;;;;;;19.98;48.68;95870.09;8159332;28;20236;-58
2021/12/01 00:11:16;;;;;;;2.43;0.30;;;;;;;19.96;48.61;95862.28;8159313;28;20188;-61
2021/12/01 00:15:15;;;;;;;0.50;0.30;;;;;;;19.93;48.71;95857.50;8159216;28;20546;-57
2021/12/01 00:19:12;;;;;;;0.23;0.20;;;;;;;19.92;48.72;95852.38;8159086;28;20213;-64
2021/12/01 00:23:10;;;;;;;0.53;0.20;;;;;;;19.90;49.07;95858.13;8159069;28;20530;-57
2021/12/01 00:27:09;;;;;;;3.20;0.40;;;;;;;19.87;48.88;95847.91;8158780;28;20789;-58
2021/12/01 00:31:08;;;;;;;2.00;0.40;;;;;;;19.86;49.11;95840.06;8158637;28;20191;-58
2021/12/01 00:35:06;;;;;;;0.40;0.33;;;;;;;19.84;49.11;95855.84;8158604;28;20192;-60
2021/12/01 00:39:05;;;;;;;0.53;0.20;;;;;;;19.81;49.26;95854.56;8158401;28;20192;-57
2021/12/01 00:43:03;;;;;;;0.53;0.43;;;;;;;19.80;49.35;95852.16;8158260;28;20217;-57
2021/12/01 00:47:05;;;;;;;1.07;0.30;;;;;;;19.76;49.42;95857.41;8158184;28;20216;-58
2021/12/01 00:51:03;;;;;;;1.67;0.30;;;;;;;19.75;49.49;95839.56;8157982;28;20196;-61
2021/12/01 00:55:01;;;;;;;1.03;0.30;;;;;;;19.74;49.71;95839.84;8158028;28;20221;-65
2021/12/01 00:58:59;;;;;;;2.50;0.30;;;;;;;19.71;49.92;95822.31;8157610;28;20207;-57
2021/12/01 01:02:58;;;;;;;2.30;0.30;;;;;;;19.71;49.68;95822.31;8156607;28;20249;-57
2021/12/01 01:06:56;;;;;;;1.17;0.27;;;;;;;19.69;49.89;95813.72;8157619;28;20234;-57
2021/12/01 01:11:09;;;;;;;0.97;0.30;;;;;;;19.68;49.77;95812.13;8157551;28;20200;-58
2021/12/01 01:19:25;;;;;;;0.10;0.10;;;;;;;19.66;50.00;95808.13;8157470;28;20180;-57
2021/12/01 01:23:24;;;;;;;0.73;0.33;;;;;;;19.64;49.95;95813.03;8157373;28;20192;-57
2021/12/01 01:27:24;;;;;;;3.47;0.30;;;;;;;19.62;50.05;95799.81;8157027;28;20215;-57
2021/12/01 01:31:22;;;;;;;2.20;0.30;;;;;;;19.59;50.03;95795.03;8156891;28;20607;-57
2021/12/01 01:35:21;;;;;;;0.70;0.20;;;;;;;19.59;50.05;95797.72;8156857;28;20192;-58
2021/12/01 01:39:20;;;;;;;1.27;0.37;;;;;;;19.58;50.09;95796.13;8156629;28;20184;-57
2021/12/01 01:43:17;;;;;;;0.30;0.20;;;;;;;19.55;50.08;95786.72;8157160;28;20241;-58
2021/12/01 01:47:16;;;;;;;0.30;0.30;;;;;;;19.54;50.46;95778.91;8156231;28;20757;-57
2021/12/01 01:51:17;;;;;;;2.47;0.20;;;;;;;19.53;50.57;95778.13;8156467;28;20591;-66
2021/12/01 01:55:15;;;;;;;1.90;0.33;;;;;;;19.52;50.17;95767.59;8156283;28;20184;-66
2021/12/01 01:59:12;;;;;;;1.57;0.30;;;;;;;19.50;50.62;95759.78;8156354;28;20245;-57
2021/12/01 02:03:11;;;;;;;0.73;0.20;;;;;;;19.49;50.60;95760.88;8156309;28;20222;-57
2021/12/01 02:07:11;;;;;;;0.37;0.20;;;;;;;19.49;50.31;95751.97;8155922;28;20228;-58
2021/12/01 02:11:12;;;;;;;0.73;0.20;;;;;;;19.49;50.55;95749.25;8156237;28;20214;-59
2021/12/01 02:15:11;;;;;;;0.70;0.23;;;;;;;19.48;50.57;95747.66;8156004;28;20196;-56
2021/12/01 02:19:08;;;;;;;0.40;0.20;;;;;;;19.48;50.89;95748.44;8155965;28;20536;-57
2021/12/01 02:23:07;;;;;;;0.37;0.30;;;;;;;19.47;50.22;95732.53;8156024;28;20654;-58
2021/12/01 02:27:06;;;;;;;1.60;0.27;;;;;;;19.46;50.72;95729.03;8158024;28;20188;-57
2021/12/01 02:31:04;;;;;;;0.37;0.20;;;;;;;19.45;50.58;95729.31;8162319;28;20188;-65
2021/12/01 02:35:02;;;;;;;0.53;0.30;;;;;;;19.43;50.78;95701.78;8162692;28;20550;-62
2021/12/01 02:39:04;;;;;;;1.90;0.20;;;;;;;19.44;51.21;95700.66;8162049;28;20192;-63
2021/12/01 02:43:01;;;;;;;1.43;0.37;;;;;;;19.43;50.81;95691.75;8162218;28;20192;-57
2021/12/01 02:47:00;;;;;;;0.20;0.20;;;;;;;19.42;50.82;95683.91;8161812;28;20187;-57
2021/12/01 02:50:59;;;;;;;0.53;0.30;;;;;;;19.41;50.87;95661.50;8161768;28;20285;-57
2021/12/01 02:54:59;;;;;;;1.43;0.30;;;;;;;19.39;50.59;95660.97;8161931;28;20192;-57
2021/12/01 02:58:59;;;;;;;1.23;0.30;;;;;;;19.39;50.83;95658.28;8161611;28;20192;-57
2021/12/01 03:02:57;;;;;;;0.43;0.40;;;;;;;19.38;50.80;95659.38;8161785;28;20250;-57
2021/12/01 03:06:57;;;;;;;0.37;0.30;;;;;;;19.38;50.66;95650.47;8161385;28;20736;-61
2021/12/01 03:10:56;;;;;;;0.80;0.73;;;;;;;19.38;50.86;95642.34;8161359;28;20282;-58
2021/12/01 03:14:54;;;;;;;0.67;0.30;;;;;;;19.37;50.93;95635.31;8161337;28;20192;-60
2021/12/01 03:18:52;;;;;;;0.47;0.30;;;;;;;19.36;50.98;95618.28;8160936;28;20188;-58
2021/12/01 03:22:49;;;;;;;0.97;0.30;;;;;;;19.35;50.89;95616.69;8160856;28;20235;-58
2021/12/01 03:26:48;;;;;;;1.13;0.30;;;;;;;19.33;51.08;95599.94;8160592;28;20696;-58
2021/12/01 03:30:47;;;;;;;2.00;0.20;;;;;;;19.32;51.16;95597.56;8160525;28;20301;-62
2021/12/01 03:34:45;;;;;;;1.37;0.20;;;;;;;19.32;51.20;95594.88;8159253;28;20199;-57
2021/12/01 03:38:43;;;;;;;0.60;0.60;;;;;;;19.32;50.83;95592.16;8159932;28;20642;-64
2021/12/01 03:42:44;;;;;;;1.87;0.40;;;;;;;19.32;50.97;95594.88;8160723;28;20653;-57
2021/12/01 03:46:41;;;;;;;1.30;0.20;;;;;;;19.32;51.04;95584.84;8160145;28;20200;-57
2021/12/01 03:50:40;;;;;;;3.53;0.20;;;;;;;19.31;51.09;95591.34;8160050;28;20219;-60
2021/12/01 03:54:38;;;;;;;0.30;0.30;;;;;;;19.31;51.35;95575.13;8159946;28;20238;-58
2021/12/01 03:58:37;;;;;;;2.50;0.30;;;;;;;19.28;51.29;95554.09;8159743;28;20259;-56
2021/12/01 04:02:34;;;;;;;3.67;0.37;;;;;;;19.28;51.18;95554.09;8159601;28;20230;-56
2021/12/01 04:06:33;;;;;;;0.30;0.30;;;;;;;19.28;51.25;95550.59;8160470;28;20227;-61
2021/12/01 04:10:32;;;;;;;2.33;0.20;;;;;;;19.28;51.32;95547.88;8159286;28;20223;-58
2021/12/01 04:14:31;;;;;;;0.77;0.20;;;;;;;19.26;51.42;95550.13;8159226;28;20184;-65
2021/12/01 04:18:29;;;;;;;0.30;0.20;;;;;;;19.25;51.36;95543.09;8159258;28;20253;-57
2021/12/01 04:22:26;;;;;;;3.03;0.30;;;;;;;19.25;51.37;95533.06;8159294;28;20242;-62
2021/12/01 04:26:26;;;;;;;0.60;0.30;;;;;;;19.24;51.18;95519.84;8159002;28;20192;-58
2021/12/01 04:30:26;;;;;;;0.43;0.17;;;;;;;19.25;51.70;95516.03;8159012;28;20681;-58
2021/12/01 04:34:23;;;;;;;0.43;0.20;;;;;;;19.24;51.48;95500.91;8159304;28;20249;-57
2021/12/01 04:38:21;;;;;;;0.43;0.30;;;;;;;19.22;51.52;95484.19;8158601;28;20200;-62
2021/12/01 04:42:19;;;;;;;1.13;0.20;;;;;;;19.22;51.40;95478.78;8158373;28;20200;-58
2021/12/01 04:46:20;;;;;;;0.40;0.20;;;;;;;19.19;51.39;95466.69;8158252;28;20188;-58
2021/12/01 04:50:19;;;;;;;0.47;0.20;;;;;;;19.19;51.55;95449.66;8157172;28;20689;-59
2021/12/01 04:54:17;;;;;;;0.40;0.30;;;;;;;19.18;51.46;95445.34;8158043;28;20650;-58
2021/12/01 04:58:15;;;;;;;1.07;0.13;;;;;;;19.18;51.77;95438.03;8157929;28;20195;-57
2021/12/01 05:02:14;;;;;;;1.47;0.20;;;;;;;19.18;51.74;95429.09;8157843;28;20188;-57
2021/12/01 05:06:13;;;;;;;10.70;0.60;;;;;;;19.19;51.65;95428.00;8157477;28;20674;-57
2021/12/01 05:10:11;;;;;;;0.40;0.40;;;;;;;19.17;51.84;95417.50;8158080;28;20272;-57
2021/12/01 05:14:09;;;;;;;0.30;0.27;;;;;;;19.17;51.58;95417.50;8157959;28;20733;-58
2021/12/01 05:18:09;;;;;;;0.30;0.20;;;;;;;19.15;51.63;95406.19;8157441;28;20727;-60
2021/12/01 05:22:07;;;;;;;0.27;0.20;;;;;;;19.14;51.62;95401.09;8157319;28;20188;-60
2021/12/01 05:26:06;;;;;;;0.43;0.20;;;;;;;19.15;51.83;95402.69;8157182;28;20720;-57
2021/12/01 05:30:05;;;;;;;0.30;0.30;;;;;;;19.14;51.75;95399.19;8157149;28;20215;-57
2021/12/01 05:34:04;;;;;;;1.53;0.30;;;;;;;19.16;51.74;95406.97;8157047;28;20188;-58
2021/12/01 05:38:03;;;;;;;1.50;0.27;;;;;;;19.15;51.60;95394.56;8156847;28;20192;-57
2021/12/01 05:42:01;;;;;;;5.20;0.57;;;;;;;19.13;51.77;95400.31;8156730;28;20241;-60
2021/12/01 05:45:59;;;;;;;0.37;0.30;;;;;;;19.14;51.77;95391.09;8156803;28;20553;-57
2021/12/01 05:49:58;;;;;;;1.67;0.40;;;;;;;19.15;51.65;95384.53;8156559;28;20285;-58
2021/12/01 05:53:56;;;;;;;0.53;0.30;;;;;;;19.13;51.60;95377.84;8156651;28;20184;-58
2021/12/01 05:57:54;;;;;;;20.17;1.10;;;;;;;19.14;51.71;95368.63;8156613;28;20583;-57
2021/12/01 06:01:52;;;;;;;2.13;0.50;;;;;;;19.09;51.22;95350.63;8156531;28;20184;-59
2021/12/01 06:05:51;;;;;;;2.07;0.53;;;;;;;19.05;51.38;95346.97;8156312;28;20224;-57
2021/12/01 06:09:49;;;;;;;3.50;0.23;;;;;;;19.03;51.17;95346.50;8156190;28;20215;-57
2021/12/01 06:13:48;;;;;;;0.93;0.30;;;;;;;19.02;51.05;95347.59;8156267;28;20664;-59
2021/12/01 06:17:46;;;;;;;6.43;0.40;;;;;;;19.15;51.07;95321.50;8156528;28;20692;-57
2021/12/01 06:21:45;;;;;;;3.00;0.30;;;;;;;19.10;51.19;95325.19;8155927;28;20665;-62
2021/12/01 06:25:43;;;;;;;0.97;0.80;;;;;;;19.05;50.99;95309.09;8155904;28;20238;-61
2021/12/01 06:29:40;;;;;;;0.77;0.30;;;;;;;19.02;50.78;95309.72;8155843;28;20285;-58
2021/12/01 06:33:38;;;;;;;2.07;0.30;;;;;;;19.00;50.60;95314.69;8155961;28;20192;-58
2021/12/01 06:37:38;;;;;;;0.87;0.40;;;;;;;18.98;50.56;95300.69;8155716;28;20184;-58
2021/12/01 06:41:36;;;;;;;3.10;0.40;;;;;;;18.97;50.35;95301.78;8155788;28;20200;-57
2021/12/01 06:45:34;;;;;;;0.37;0.20;;;;;;;18.95;50.65;95288.59;8155704;28;20204;-60
2021/12/01 06:49:31;;;;;;;1.90;0.40;;;;;;;18.94;50.42;95281.59;8155559;28;20266;-57
2021/12/01 06:53:30;;;;;;;1.70;0.30;;;;;;;18.94;50.34;95269.97;8155588;28;20192;-57
2021/12/01 06:57:28;;;;;;;0.67;0.20;;;;;;;18.92;50.43;95270.31;8155494;28;20191;-57
2021/12/01 07:01:26;;;;;;;1.20;0.30;;;;;;;18.94;50.30;95268.06;8154838;28;20509;-56
2021/12/01 07:05:24;;;;;;;1.80;0.20;;;;;;;19.05;50.63;95267.75;8150429;28;20224;-57
2021/12/01 07:09:24;;;;;;;0.73;0.27;;;;;;;19.07;50.40;95262.78;8148713;28;20220;-57
2021/12/01 07:13:22;;;;;;;3.00;0.40;;;;;;;19.01;49.99;95262.97;8151750;28;20192;-58
2021/12/01 07:17:20;;;;;;;5.77;0.30;;;;;;;18.97;49.99;95262.00;8153518;28;20203;-56
2021/12/01 07:21:18;;;;;;;3.10;0.40;;;;;;;18.97;50.56;95253.09;8153723;28;20278;-56
2021/12/01 07:25:17;;;;;;;0.90;0.23;;;;;;;19.19;50.57;95258.31;8154595;28;20207;-60
2021/12/01 07:29:17;;;;;;;0.30;0.30;;;;;;;19.42;50.26;95229.91;8152938;28;20611;-58
2021/12/01 07:33:15;;;;;;;1.20;0.30;;;;;;;19.64;50.10;95228.88;8152884;28;20601;-58
2021/12/01 07:37:16;;;;;;;1.23;0.20;;;;;;;19.73;50.09;95223.41;8153637;28;20455;-61
2021/12/01 07:41:22;;;;;;;0.40;0.20;;;;;;;19.87;49.99;95200.41;8153202;28;20836;-61
2021/12/01 07:45:20;;;;;;;2.20;0.17;;;;;;;19.95;49.51;95206.88;8152606;28;20706;-62
2021/12/01 07:49:19;;;;;;;0.60;0.37;;;;;;;20.01;49.63;95194.72;8152397;28;20269;-58
2021/12/01 07:53:16;;;;;;;1.70;0.30;;;;;;;20.03;49.67;95185.16;8153358;28;21082;-58
2021/12/01 07:57:17;;;;;;;2.33;0.47;;;;;;;20.09;49.54;95169.47;8152646;28;20658;-57
2021/12/01 08:01:14;;;;;;;0.70;0.20;;;;;;;20.26;49.63;95174.00;8151820;28;20204;-64
2021/12/01 08:05:13;;;;;;;3.73;0.97;;;;;;;20.39;49.58;95159.41;8152742;28;20522;-57
2021/12/01 08:09:12;;;;;;;2.00;0.30;;;;;;;20.58;49.09;95151.56;8152099;28;20249;-57
2021/12/01 08:13:12;;;;;;;2.03;0.40;;;;;;;20.71;48.75;95157.81;8152171;28;20204;-58
2021/12/01 08:17:18;;;;;;;0.73;0.20;;;;;;;20.71;48.75;95134.19;8151527;28;20196;-62
2021/12/01 08:21:17;;;;;;;1.33;0.30;;;;;;;20.73;48.89;95133.88;8152010;28;20443;-57
2021/12/01 08:25:27;;;;;;;6.47;0.67;;;;;;;20.84;48.48;95129.59;8151676;28;20676;-57
2021/12/01 08:29:26;;;;;;;3.03;0.30;;;;;;;20.95;48.42;95117.97;8152277;28;20192;-56
2021/12/01 08:33:24;;;;;;;0.20;0.20;;;;;;;21.04;48.59;95121.38;8151321;28;20200;-57
2021/12/01 08:37:22;;;;;;;3.20;0.60;;;;;;;21.11;47.90;95115.41;8150724;28;20212;-56
2021/12/01 08:41:20;;;;;;;1.10;0.20;;;;;;;21.15;47.85;95111.72;8151732;28;20606;-57
2021/12/01 08:45:19;;;;;;;3.07;0.30;;;;;;;21.17;48.01;95104.00;8150945;28;20204;-59
2021/12/01 08:49:17;;;;;;;3.20;0.30;;;;;;;21.29;47.94;95099.69;8150629;28;20192;-58
2021/12/01 08:53:15;;;;;;;0.30;0.30;;;;;;;21.39;47.53;95082.97;8151297;28;20223;-57
2021/12/01 08:57:13;;;;;;;1.67;0.30;;;;;;;21.47;47.37;95080.13;8150482;28;20290;-65
2021/12/01 09:01:12;;;;;;;1.63;0.40;;;;;;;21.56;47.62;95085.41;8149966;28;20195;-56
2021/12/01 09:05:11;;;;;;;2.17;0.50;;;;;;;21.51;47.04;95083.75;8153921;28;20223;-61
2021/12/01 09:09:09;;;;;;;0.77;0.43;;;;;;;21.58;47.15;95091.31;8152440;28;20196;-57
2021/12/01 09:13:08;;;;;;;2.73;0.33;;;;;;;21.64;47.24;95084.53;8151144;28;20212;-60
2021/12/01 09:17:09;;;;;;;0.40;0.10;;;;;;;21.61;46.82;95067.00;8152063;28;20208;-59
2021/12/01 09:21:07;;;;;;;5.30;0.60;;;;;;;21.63;46.88;95072.84;8153406;28;20195;-61
2021/12/01 09:25:07;;;;;;;0.53;0.20;;;;;;;21.68;47.14;95074.53;8144974;28;20646;-57
2021/12/01 09:29:05;;;;;;;1.60;0.40;;;;;;;21.63;47.15;95042.97;8145428;28;20223;-62
2021/12/01 09:33:04;;;;;;;1.70;0.20;;;;;;;21.58;46.96;95042.44;8145484;28;20219;-56
2021/12/01 09:37:02;;;;;;;2.83;0.30;;;;;;;21.62;46.98;95035.16;8169799;28;20191;-60
2021/12/01 09:41:00;;;;;;;2.47;0.30;;;;;;;21.66;47.18;95015.13;8176662;28;20253;-60
2021/12/01 09:44:58;;;;;;;1.63;0.30;;;;;;;21.70;46.72;94996.22;8179573;28;20591;-56
2021/12/01 09:48:57;;;;;;;0.50;0.30;;;;;;;21.66;47.24;94992.59;8181730;28;20263;-63
2021/12/01 09:52:55;;;;;;;2.73;0.60;;;;;;;21.70;47.12;94988.84;8182414;28;20746;-58
2021/12/01 09:56:53;;;;;;;0.43;0.43;;;;;;;21.74;47.12;94969.16;8183005;28;20261;-57
2021/12/01 10:00:54;;;;;;;1.57;0.30;;;;;;;21.74;47.15;94958.28;8182818;28;20222;-60
2021/12/01 10:04:54;;;;;;;2.90;0.60;;;;;;;21.74;47.15;94958.28;8182164;28;20594;-65
2021/12/01 10:08:54;;;;;;;2.17;0.50;;;;;;;21.63;46.91;94953.31;8170900;28;20238;-63
2021/12/01 10:12:52;;;;;;;1.67;0.30;;;;;;;21.56;46.82;94952.31;8177564;28;20223;-58
2021/12/01 10:16:54;;;;;;;0.90;0.33;;;;;;;21.60;46.80;94945.06;8182731;28;20203;-58
2021/12/01 10:21:02;;;;;;;1.43;0.27;;;;;;;21.64;46.86;94949.50;8182260;28;20219;-60
2021/12/01 10:25:00;;;;;;;2.33;0.40;;;;;;;21.64;47.31;94926.97;8181776;28;20195;-69
2021/12/01 10:28:59;;;;;;;1.63;0.33;;;;;;;21.56;47.24;94928.66;8182068;28;20203;-57
2021/12/01 10:33:09;;;;;;;3.70;0.67;;;;;;;21.57;46.75;94921.31;8182591;28;20286;-57
2021/12/01 10:37:12;;;;;;;2.93;0.40;;;;;;;21.56;47.06;94901.50;8182529;28;20229;-58
2021/12/01 10:41:11;;;;;;;1.97;0.30;;;;;;;21.54;47.03;94898.34;8182277;28;20211;-57
2021/12/01 10:45:10;;;;;;;1.70;0.23;;;;;;;21.53;46.64;94893.25;8181664;28;20203;-62
2021/12/01 10:49:07;;;;;;;0.80;0.23;;;;;;;21.58;46.34;94890.31;8185365;28;20199;-61
2021/12/01 10:53:10;;;;;;;1.17;0.33;;;;;;;21.57;46.33;94886.81;8188412;28;20223;-58
2021/12/01 10:57:19;;;;;;;4.07;0.50;;;;;;;21.60;46.28;94883.41;8187776;28;20207;-58
2021/12/01 11:01:20;;;;;;;0.37;0.30;;;;;;;21.61;46.59;94863.25;8187820;28;20211;-60
2021/12/01 11:05:29;;;;;;;3.43;0.40;;;;;;;21.74;45.88;94836.81;8187286;28;20253;-56
2021/12/01 11:09:28;;;;;;;0.23;0.20;;;;;;;21.89;45.65;94840.72;8187080;28;20705;-60
2021/12/01 11:13:27;;;;;;;1.67;0.60;;;;;;;21.95;46.17;94828.44;8184955;28;20254;-57
2021/12/01 11:17:40;;;;;;;2.10;0.40;;;;;;;21.95;45.31;94820.28;8187360;28;20195;-56
2021/12/01 11:21:39;;;;;;;1.50;0.37;;;;;;;21.86;45.29;94815.00;8182023;28;20267;-59
2021/12/01 11:25:38;;;;;;;0.87;0.23;;;;;;;21.82;45.32;94797.00;8183071;28;20245;-64
2021/12/01 11:29:37;;;;;;;0.40;0.30;;;;;;;21.80;45.96;94804.72;8186743;28;20585;-59
2021/12/01 11:33:34;;;;;;;0.60;0.30;;;;;;;21.85;45.34;94790.88;8186314;28;20227;-58
2021/12/01 11:37:32;;;;;;;2.97;0.33;;;;;;;22.04;44.56;94766.53;8167908;28;20240;-58
2021/12/01 11:41:36;;;;;;;2.57;0.40;;;;;;;22.20;45.08;94750.97;8184551;28;20240;-56
2021/12/01 11:45:36;;;;;;;1.50;0.40;;;;;;;22.22;44.27;94740.53;8185902;28;20653;-59
2021/12/01 11:49:34;;;;;;;2.13;0.43;;;;;;;22.12;44.50;94725.56;8186598;28;20199;-61
2021/12/01 11:53:36;;;;;;;1.33;0.40;;;;;;;22.16;44.52;94723.72;8186224;28;21041;-60
2021/12/01 11:57:40;;;;;;;1.67;0.67;;;;;;;22.09;44.32;94712.66;8172036;28;20219;-58
2021/12/01 12:01:53;;;;;;;1.73;0.30;;;;;;;22.11;44.32;94709.59;8165337;28;20258;-57
2021/12/01 12:06:22;;;;;;;2.80;0.30;;;;;;;22.06;45.14;94693.56;8153141;28;20330;-57
2021/12/01 12:10:21;;;;;;;1.80;0.30;;;;;;;22.02;45.17;94690.75;8153258;28;20188;-58
2021/12/01 12:14:23;;;;;;;1.90;0.40;;;;;;;22.02;45.58;94690.75;8153579;28;20270;-57
2021/12/01 12:18:52;;;;;;;2.00;0.20;;;;;;;22.02;45.61;94684.53;8153323;28;20221;-55
2021/12/01 12:23:00;;;;;;;3.77;0.47;;;;;;;21.87;45.50;94664.38;8119375;28;20249;-56
2021/12/01 12:27:02;;;;;;;3.40;0.50;;;;;;;21.79;45.64;94680.88;8152613;28;20204;-56
2021/12/01 12:31:05;;;;;;;1.80;0.37;;;;;;;21.75;46.16;94659.06;8152940;28;20291;-56
2021/12/01 12:35:06;;;;;;;2.13;0.37;;;;;;;21.68;45.80;94656.94;8153199;28;20629;-57
2021/12/01 12:39:06;;;;;;;2.80;0.30;;;;;;;21.65;46.18;94663.09;8152928;28;20604;-56
2021/12/01 12:43:09;;;;;;;3.00;0.33;;;;;;;21.65;46.54;94665.81;8152158;28;20199;-56
2021/12/01 12:47:10;;;;;;;3.20;0.67;;;;;;;21.63;46.56;94665.38;8152004;28;20207;-56
2021/12/01 12:51:17;;;;;;;2.30;0.40;;;;;;;21.61;46.53;94658.72;8152355;28;20210;-58
2021/12/01 12:55:38;;;;;;;1.93;0.27;;;;;;;21.56;46.90;94648.91;8152130;28;20241;-56
2021/12/01 12:59:36;;;;;;;1.93;0.30;;;;;;;21.56;46.61;94634.53;8151633;28;20227;-57
2021/12/01 13:03:35;;;;;;;0.37;0.20;;;;;;;21.50;46.39;94625.09;8152022;28;20249;-57
2021/12/01 13:07:56;;;;;;;1.77;0.30;;;;;;;21.44;46.32;94608.28;8152171;28;20292;-58
2021/12/01 13:11:58;;;;;;;0.70;0.30;;;;;;;21.42;47.06;94602.44;8150686;28;20257;-58
2021/12/01 13:15:56;;;;;;;0.57;0.40;;;;;;;21.39;47.01;94599.63;8152022;28;20719;-56
2021/12/01 13:20:00;;;;;;;3.37;0.40;;;;;;;21.35;46.76;94590.59;8151824;28;20415;-56
2021/12/01 13:23:58;;;;;;;4.40;0.37;;;;;;;21.31;47.15;94590.53;8150976;28;20200;-59
2021/12/01 13:27:56;;;;;;;0.80;0.20;;;;;;;21.32;47.17;94569.59;8150748;28;20191;-56
2021/12/01 13:31:54;;;;;;;2.13;0.43;;;;;;;21.28;47.22;94566.03;8151679;28;20220;-56
2021/12/01 13:35:53;;;;;;;1.93;0.20;;;;;;;21.25;47.54;94566.72;8150853;28;20199;-57
2021/12/01 13:39:52;;;;;;;0.20;0.20;;;;;;;21.21;47.26;94574.78;8150726;28;20196;-56
2021/12/01 13:43:50;;;;;;;4.50;0.50;;;;;;;21.18;47.79;94556.47;8150796;28;20196;-59
2021/12/01 13:47:48;;;;;;;1.10;0.37;;;;;;;21.14;47.57;94553.69;8150585;28;20241;-57
2021/12/01 13:51:49;;;;;;;1.00;0.23;;;;;;;21.09;48.09;94553.97;8149888;28;20681;-55
2021/12/01 13:55:47;;;;;;;1.07;0.30;;;;;;;21.09;48.10;94542.31;8150619;28;20283;-61
2021/12/01 13:59:47;;;;;;;2.80;0.30;;;;;;;21.10;47.88;94533.00;8150677;28;20192;-66
2021/12/01 14:04:07;;;;;;;3.27;0.37;;;;;;;21.08;47.71;94527.13;8150047;28;20245;-57
2021/12/01 14:08:11;;;;;;;1.70;0.30;;;;;;;21.02;47.88;94526.63;8146633;28;20303;-59
2021/12/01 14:12:18;;;;;;;2.57;0.50;;;;;;;21.01;47.90;94530.44;8150444;28;20726;-57
2021/12/01 14:16:16;;;;;;;1.33;0.53;;;;;;;21.01;48.42;94527.75;8149939;28;20654;-57
2021/12/01 14:20:14;;;;;;;1.07;0.50;;;;;;;20.98;48.56;94530.38;8149666;28;20194;-59
2021/12/01 14:24:17;;;;;;;2.70;0.50;;;;;;;20.95;48.97;94541.91;8155773;28;20203;-57
2021/12/01 14:28:15;;;;;;;3.80;0.33;;;;;;;20.88;48.01;94534.41;8157044;28;20188;-63
2021/12/01 14:32:14;;;;;;;0.93;0.57;;;;;;;20.87;48.31;94532.84;8156031;28;20594;-67
2021/12/01 14:36:11;;;;;;;1.43;0.30;;;;;;;20.84;48.39;94538.16;8155884;28;20191;-60
2021/12/01 14:40:15;;;;;;;4.43;0.60;;;;;;;20.82;48.18;94521.47;8156406;28;20719;-57
2021/12/01 14:44:14;;;;;;;2.83;0.40;;;;;;;20.79;47.92;94527.59;8156401;28;20281;-58
2021/12/01 14:48:13;;;;;;;2.43;0.30;;;;;;;20.80;48.46;94523.72;8155698;28;20298;-55
2021/12/01 14:52:21;;;;;;;0.43;0.33;;;;;;;20.77;48.72;94546.13;8155565;28;20258;-56
2021/12/01 14:56:20;;;;;;;0.33;0.30;;;;;;;20.75;48.36;94537.56;8155477;28;20192;-57
2021/12/01 15:00:21;;;;;;;2.43;0.30;;;;;;;20.72;48.34;94528.19;8155965;28;20226;-57
2021/12/01 15:04:19;;;;;;;2.20;0.37;;;;;;;20.70;48.81;94541.34;8155360;28;20916;-57
2021/12/01 15:08:25;;;;;;;2.20;0.60;;;;;;;20.68;48.27;94534.66;8155053;28;20536;-56
2021/12/01 15:12:28;;;;;;;2.03;0.30;;;;;;;20.66;48.79;94543.16;8155015;28;20223;-56
2021/12/01 15:16:31;;;;;;;0.97;0.27;;;;;;;20.65;48.83;94530.72;8155548;28;20195;-66
2021/12/01 15:21:06;;;;;;;3.77;0.30;;;;;;;20.62;48.80;94524.09;8154561;28;20200;-65
2021/12/01 15:25:05;;;;;;;2.57;0.40;;;;;;;20.61;48.90;94533.34;8155713;28;20266;-57
2021/12/01 15:29:06;;;;;;;1.27;0.30;;;;;;;20.64;48.83;94542.69;8154289;28;20602;-59
2021/12/01 15:33:06;;;;;;;1.30;0.40;;;;;;;20.60;49.31;94525.56;8153550;28;20289;-60
2021/12/01 15:37:04;;;;;;;3.27;0.30;;;;;;;20.54;48.96;94530.47;8155405;28;20246;-65
2021/12/01 15:41:02;;;;;;;2.77;0.20;;;;;;;20.51;48.95;94538.50;8154073;28;20336;-62
2021/12/01 15:45:01;;;;;;;0.67;0.50;;;;;;;20.47;48.89;94534.91;8178988;28;88418;-57
2021/12/01 15:48:59;;;;;;;2.00;0.43;;;;;;;20.48;49.21;94528.38;8185845;28;20273;-56
2021/12/01 15:52:59;;;;;;;0.83;0.30;;;;;;;20.46;49.04;94525.19;8186537;28;20222;-59
2021/12/01 15:56:57;;;;;;;1.17;0.50;;;;;;;20.43;49.14;94515.84;8185550;28;20191;-62
2021/12/01 16:00:59;;;;;;;3.03;0.40;;;;;;;20.52;49.04;94529.22;8186100;28;20653;-58
2021/12/01 16:04:57;;;;;;;1.17;0.40;;;;;;;20.72;48.61;94528.19;8186158;28;20629;-59
2021/12/01 16:08:55;;;;;;;3.90;0.40;;;;;;;20.86;48.14;94514.19;8185478;28;20259;-58
2021/12/01 16:12:53;;;;;;;3.00;0.50;;;;;;;20.96;48.08;94524.50;8185510;28;20276;-58
2021/12/01 16:16:52;;;;;;;1.70;0.30;;;;;;;21.09;48.19;94507.03;8186545;28;20227;-59
2021/12/01 16:20:50;;;;;;;0.97;0.30;;;;;;;21.19;48.16;94511.13;8185163;28;20195;-57
2021/12/01 16:24:48;;;;;;;0.90;0.40;;;;;;;21.28;48.10;94509.81;8185134;28;20195;-60
2021/12/01 16:28:48;;;;;;;3.60;0.50;;;;;;;21.39;47.90;94518.97;8185079;28;20777;-58
2021/12/01 16:32:50;;;;;;;2.30;0.47;;;;;;;21.50;47.75;94514.53;8184792;28;20243;-65
2021/12/01 16:36:48;;;;;;;1.97;0.30;;;;;;;21.54;47.60;94522.75;8184667;28;20268;-58
2021/12/01 16:40:47;;;;;;;2.47;0.40;;;;;;;21.59;47.41;94536.84;8185273;28;20298;-58
2021/12/01 16:44:45;;;;;;;1.37;0.50;;;;;;;21.63;47.08;94537.72;8183387;28;20206;-59
2021/12/01 16:48:45;;;;;;;0.87;0.30;;;;;;;21.71;47.08;94552.25;8184680;28;20710;-57
2021/12/01 16:52:43;;;;;;;0.70;0.50;;;;;;;21.76;47.28;94551.97;8184771;28;20214;-63
2021/12/01 16:56:41;;;;;;;2.43;0.33;;;;;;;21.81;47.01;94548.97;8184216;28;20202;-58
2021/12/01 17:00:43;;;;;;;3.67;0.50;;;;;;;21.87;47.09;94565.75;8182713;28;20896;-60
2021/12/01 17:04:44;;;;;;;0.43;0.33;;;;;;;21.89;47.11;94571.69;8184481;28;20566;-58
2021/12/01 17:08:42;;;;;;;6.20;0.50;;;;;;;21.94;46.83;94582.25;8183916;28;20224;-58
2021/12/01 17:12:42;;;;;;;1.03;0.30;;;;;;;21.99;47.10;94588.19;8183257;28;20564;-58
2021/12/01 17:16:39;;;;;;;3.17;0.40;;;;;;;22.06;46.66;94591.06;8184071;28;20199;-57
2021/12/01 17:20:39;;;;;;;2.50;0.40;;;;;;;22.10;46.46;94599.28;8183729;28;20198;-57
2021/12/01 17:24:37;;;;;;;2.90;0.53;;;;;;;22.20;46.59;94609.56;8183288;28;20202;-58
2021/12/01 17:28:37;;;;;;;2.80;0.47;;;;;;;22.22;46.61;94608.09;8183657;28;20245;-57
2021/12/01 17:32:34;;;;;;;3.80;0.40;;;;;;;22.23;47.00;94615.09;8186740;28;20195;-57
2021/12/01 17:36:33;;;;;;;3.47;0.77;;;;;;;22.14;46.72;94613.72;8189225;28;20233;-60
2021/12/01 17:50:12;;;;;;;1.37;0.47;;;;;;;21.86;46.61;94622.06;20887905;27;20551;-57
2021/12/01 18:00:13;;;;;;;3.17;0.50;;;;;;;21.73;46.80;94631.47;20888004;28;20721;-56
2021/12/01 18:10:13;;;;;;;2.87;0.60;;;;;;;21.60;47.22;94647.06;20887008;28;20224;-56
2021/12/01 18:20:13;;;;;;;0.53;0.37;;;;;;;21.47;47.13;94656.44;20886511;28;20269;-59
2021/12/01 18:30:13;;;;;;;0.83;0.40;;;;;;;21.37;47.45;94665.16;20885366;28;20194;-61
2021/12/01 18:40:12;;;;;;;0.70;0.33;;;;;;;21.40;47.71;94669.88;20852645;28;20720;-58
2021/12/01 18:50:12;;;;;;;3.60;0.40;;;;;;;21.40;47.89;94694.31;20783875;28;20218;-62
2021/12/01 19:00:12;;;;;;;1.57;0.40;;;;;;;21.35;47.86;94693.75;20742771;28;20212;-58
2021/12/01 19:10:14;;;;;;;2.70;0.50;;;;;;;21.26;48.39;94718.38;20775060;28;20215;-57
2021/12/01 19:20:12;;;;;;;1.33;0.40;;;;;;;21.31;48.27;94720.84;20794423;28;20230;-57
2021/12/01 19:30:15;;;;;;;2.07;0.40;;;;;;;21.63;47.67;94724.34;20824578;28;20581;-59
2021/12/01 19:40:14;;;;;;;1.53;0.43;;;;;;;21.75;47.78;94712.59;20769390;28;20614;-57
2021/12/01 19:50:16;;;;;;;0.40;0.30;;;;;;;21.82;47.46;94732.59;20741295;28;20685;-59
2021/12/01 20:00:16;;;;;;;2.23;0.40;;;;;;;21.94;47.58;94737.16;20740727;28;20214;-57
2021/12/01 20:10:17;;;;;;;2.20;0.30;;;;;;;21.98;47.83;94732.59;20790627;28;20218;-58
